Anson, Maine
Current Conditions -  °F | °C
As of 6:55 PM on Friday 21 Nov 2014 (Local Time) from KWVL Reporting Station
Clear Clear  
Wind Chill: 11°   Ceiling: Unl
Heat Index: 23°   Visibility: 10mi
Dew Point:   Wind: 13mph
Humidity: 43%   Direction: 300°WNW
Pressure: 30.2"   Gusts: 18mph
Location:  44.8°N, 69.89°W
Report Text: KWVL 212355Z 30011G16KT 10SM CLR M05/M16 A3020 RMK AO1 11010 21050 400001060 52034
Loading
Personal Weather Stations






























Interactive Weather Map New forecast layout! Learn more

10-Day Weather Forecast

Advertisements
Track Severe Weather on mobile